sensor_id;sensor_type;location;lat;lon;timestamp;P1;durP1;ratioP1;P2;durP2;ratioP2
72891;SDS011;61032;50.782;6.818;2023-11-18T00:00:40;10.48;;;6.15;;
72891;SDS011;61032;50.782;6.818;2023-11-18T00:01:41;10.60;;;5.53;;
72891;SDS011;61032;50.782;6.818;2023-11-18T00:02:42;12.25;;;6.88;;
72891;SDS011;61032;50.782;6.818;2023-11-18T00:03:42;10.77;;;5.88;;
72891;SDS011;61032;50.782;6.818;2023-11-18T00:04:43;13.18;;;5.88;;
72891;SDS011;61032;50.782;6.818;2023-11-18T00:05:43;12.05;;;6.22;;
72891;SDS011;61032;50.782;6.818;2023-11-18T00:06:44;11.10;;;5.68;;
72891;SDS011;61032;50.782;6.818;2023-11-18T00:07:44;11.77;;;6.43;;
72891;SDS011;61032;50.782;6.818;2023-11-18T00:08:45;10.27;;;6.00;;
72891;SDS011;61032;50.782;6.818;2023-11-18T00:09:45;8.95;;;5.25;;
72891;SDS011;61032;50.782;6.818;2023-11-18T00:10:45;10.02;;;5.75;;
72891;SDS011;61032;50.782;6.818;2023-11-18T00:11:47;9.43;;;5.82;;
72891;SDS011;61032;50.782;6.818;2023-11-18T00:12:49;9.32;;;5.40;;
72891;SDS011;61032;50.782;6.818;2023-11-18T00:13:50;10.38;;;6.25;;
72891;SDS011;61032;50.782;6.818;2023-11-18T00:14:50;10.57;;;5.95;;
72891;SDS011;61032;50.782;6.818;2023-11-18T00:15:50;8.55;;;5.25;;
72891;SDS011;61032;50.782;6.818;2023-11-18T00:16:51;11.98;;;6.80;;
72891;SDS011;61032;50.782;6.818;2023-11-18T00:17:51;11.18;;;5.63;;
72891;SDS011;61032;50.782;6.818;2023-11-18T00:18:52;10.65;;;6.10;;
72891;SDS011;61032;50.782;6.818;2023-11-18T00:19:53;11.30;;;5.93;;
72891;SDS011;61032;50.782;6.818;2023-11-18T00:20:53;9.73;;;5.68;;
72891;SDS011;61032;50.782;6.818;2023-11-18T00:21:57;9.88;;;5.57;;
72891;SDS011;61032;50.782;6.818;2023-11-18T00:22:57;10.45;;;5.72;;
72891;SDS011;61032;50.782;6.818;2023-11-18T00:23:58;9.75;;;5.72;;
72891;SDS011;61032;50.782;6.818;2023-11-18T00:24:58;10.02;;;6.05;;
72891;SDS011;61032;50.782;6.818;2023-11-18T00:25:58;11.02;;;5.88;;
72891;SDS011;61032;50.782;6.818;2023-11-18T00:26:59;10.55;;;5.97;;
72891;SDS011;61032;50.782;6.818;2023-11-18T00:27:59;12.50;;;5.95;;
72891;SDS011;61032;50.782;6.818;2023-11-18T00:28:59;11.10;;;5.35;;
72891;SDS011;61032;50.782;6.818;2023-11-18T00:30:04;9.25;;;5.15;;
72891;SDS011;61032;50.782;6.818;2023-11-18T00:31:13;13.02;;;5.38;;
72891;SDS011;61032;50.782;6.818;2023-11-18T00:32:14;7.93;;;5.22;;
72891;SDS011;61032;50.782;6.818;2023-11-18T00:33:14;9.35;;;4.93;;
72891;SDS011;61032;50.782;6.818;2023-11-18T00:34:14;10.55;;;6.03;;
72891;SDS011;61032;50.782;6.818;2023-11-18T00:35:15;8.55;;;5.47;;
72891;SDS011;61032;50.782;6.818;2023-11-18T00:36:15;10.55;;;5.93;;
72891;SDS011;61032;50.782;6.818;2023-11-18T00:37:15;9.95;;;5.75;;
72891;SDS011;61032;50.782;6.818;2023-11-18T00:38:16;9.40;;;5.22;;
72891;SDS011;61032;50.782;6.818;2023-11-18T00:39:17;8.90;;;5.10;;
72891;SDS011;61032;50.782;6.818;2023-11-18T00:41:20;9.98;;;5.55;;
72891;SDS011;61032;50.782;6.818;2023-11-18T00:42:21;9.73;;;5.35;;
72891;SDS011;61032;50.782;6.818;2023-11-18T00:43:22;9.82;;;5.93;;
72891;SDS011;61032;50.782;6.818;2023-11-18T00:44:22;9.15;;;4.80;;
72891;SDS011;61032;50.782;6.818;2023-11-18T00:45:23;8.55;;;5.18;;
72891;SDS011;61032;50.782;6.818;2023-11-18T00:46:23;9.02;;;5.38;;
72891;SDS011;61032;50.782;6.818;2023-11-18T00:47:24;9.52;;;4.95;;
72891;SDS011;61032;50.782;6.818;2023-11-18T00:48:24;9.80;;;5.45;;
72891;SDS011;61032;50.782;6.818;2023-11-18T00:49:25;11.07;;;6.05;;
72891;SDS011;61032;50.782;6.818;2023-11-18T00:50:25;11.23;;;5.72;;
72891;SDS011;61032;50.782;6.818;2023-11-18T00:51:27;10.52;;;5.50;;
72891;SDS011;61032;50.782;6.818;2023-11-18T00:52:27;9.65;;;5.47;;
72891;SDS011;61032;50.782;6.818;2023-11-18T00:53:28;9.93;;;5.22;;
72891;SDS011;61032;50.782;6.818;2023-11-18T00:54:29;10.07;;;5.82;;
72891;SDS011;61032;50.782;6.818;2023-11-18T00:55:30;9.45;;;5.38;;
72891;SDS011;61032;50.782;6.818;2023-11-18T00:56:31;11.18;;;6.05;;
72891;SDS011;61032;50.782;6.818;2023-11-18T00:57:32;9.13;;;6.22;;
72891;SDS011;61032;50.782;6.818;2023-11-18T00:58:32;12.20;;;7.30;;
72891;SDS011;61032;50.782;6.818;2023-11-18T00:59:35;12.52;;;7.43;;
72891;SDS011;61032;50.782;6.818;2023-11-18T01:00:35;12.77;;;8.20;;
72891;SDS011;61032;50.782;6.818;2023-11-18T01:01:36;13.70;;;8.15;;
72891;SDS011;61032;50.782;6.818;2023-11-18T01:02:37;13.35;;;8.48;;
72891;SDS011;61032;50.782;6.818;2023-11-18T01:03:38;13.35;;;7.60;;
72891;SDS011;61032;50.782;6.818;2023-11-18T01:04:39;13.20;;;8.63;;
72891;SDS011;61032;50.782;6.818;2023-11-18T01:05:39;11.40;;;7.65;;
72891;SDS011;61032;50.782;6.818;2023-11-18T01:06:39;11.18;;;7.18;;
72891;SDS011;61032;50.782;6.818;2023-11-18T01:07:40;10.95;;;7.05;;
72891;SDS011;61032;50.782;6.818;2023-11-18T01:08:44;12.52;;;6.75;;
72891;SDS011;61032;50.782;6.818;2023-11-18T01:09:45;9.73;;;6.60;;
72891;SDS011;61032;50.782;6.818;2023-11-18T01:10:45;9.13;;;6.30;;
72891;SDS011;61032;50.782;6.818;2023-11-18T01:11:46;8.93;;;5.70;;
72891;SDS011;61032;50.782;6.818;2023-11-18T01:12:46;10.45;;;5.60;;
72891;SDS011;61032;50.782;6.818;2023-11-18T01:13:46;11.13;;;5.93;;
72891;SDS011;61032;50.782;6.818;2023-11-18T01:14:47;9.52;;;5.00;;
72891;SDS011;61032;50.782;6.818;2023-11-18T01:15:48;14.23;;;6.32;;
72891;SDS011;61032;50.782;6.818;2023-11-18T01:16:49;9.38;;;6.07;;
72891;SDS011;61032;50.782;6.818;2023-11-18T01:17:49;8.00;;;4.95;;
72891;SDS011;61032;50.782;6.818;2023-11-18T01:18:49;9.25;;;5.28;;
72891;SDS011;61032;50.782;6.818;2023-11-18T01:19:50;10.15;;;5.95;;
72891;SDS011;61032;50.782;6.818;2023-11-18T01:20:50;9.60;;;4.90;;
72891;SDS011;61032;50.782;6.818;2023-11-18T01:21:51;11.35;;;5.20;;
72891;SDS011;61032;50.782;6.818;2023-11-18T01:22:53;9.65;;;5.15;;
72891;SDS011;61032;50.782;6.818;2023-11-18T01:23:53;7.70;;;5.13;;
72891;SDS011;61032;50.782;6.818;2023-11-18T01:24:54;8.27;;;5.22;;
72891;SDS011;61032;50.782;6.818;2023-11-18T01:25:54;10.02;;;4.90;;
72891;SDS011;61032;50.782;6.818;2023-11-18T01:26:56;8.43;;;5.18;;
72891;SDS011;61032;50.782;6.818;2023-11-18T01:27:56;7.85;;;5.55;;
72891;SDS011;61032;50.782;6.818;2023-11-18T01:28:56;11.30;;;5.13;;
72891;SDS011;61032;50.782;6.818;2023-11-18T01:29:56;9.85;;;5.80;;
72891;SDS011;61032;50.782;6.818;2023-11-18T01:30:57;8.27;;;4.72;;
72891;SDS011;61032;50.782;6.818;2023-11-18T01:31:57;10.48;;;6.38;;
72891;SDS011;61032;50.782;6.818;2023-11-18T01:32:58;10.93;;;5.75;;
72891;SDS011;61032;50.782;6.818;2023-11-18T01:34:01;8.85;;;4.57;;
72891;SDS011;61032;50.782;6.818;2023-11-18T01:35:04;9.50;;;4.97;;
72891;SDS011;61032;50.782;6.818;2023-11-18T01:36:04;7.43;;;5.07;;
72891;SDS011;61032;50.782;6.818;2023-11-18T01:37:06;7.90;;;4.85;;
72891;SDS011;61032;50.782;6.818;2023-11-18T01:38:07;8.25;;;5.53;;
72891;SDS011;61032;50.782;6.818;2023-11-18T01:39:07;8.85;;;5.07;;
72891;SDS011;61032;50.782;6.818;2023-11-18T01:40:08;11.07;;;5.15;;
72891;SDS011;61032;50.782;6.818;2023-11-18T01:41:12;9.07;;;4.97;;
72891;SDS011;61032;50.782;6.818;2023-11-18T01:42:12;8.23;;;4.57;;
72891;SDS011;61032;50.782;6.818;2023-11-18T01:43:12;7.85;;;4.70;;
72891;SDS011;61032;50.782;6.818;2023-11-18T01:44:14;6.63;;;4.25;;
72891;SDS011;61032;50.782;6.818;2023-11-18T01:45:15;8.23;;;4.45;;
72891;SDS011;61032;50.782;6.818;2023-11-18T01:46:16;7.93;;;4.65;;
72891;SDS011;61032;50.782;6.818;2023-11-18T01:47:18;8.18;;;4.55;;
72891;SDS011;61032;50.782;6.818;2023-11-18T01:48:19;7.95;;;4.70;;
72891;SDS011;61032;50.782;6.818;2023-11-18T01:49:22;8.88;;;4.50;;
72891;SDS011;61032;50.782;6.818;2023-11-18T01:50:23;8.80;;;5.13;;
72891;SDS011;61032;50.782;6.818;2023-11-18T01:51:23;11.55;;;5.88;;
72891;SDS011;61032;50.782;6.818;2023-11-18T01:52:24;9.27;;;5.40;;
72891;SDS011;61032;50.782;6.818;2023-11-18T01:53:25;8.65;;;4.93;;
72891;SDS011;61032;50.782;6.818;2023-11-18T01:54:26;9.55;;;4.53;;
72891;SDS011;61032;50.782;6.818;2023-11-18T01:55:28;9.73;;;5.07;;
72891;SDS011;61032;50.782;6.818;2023-11-18T01:56:28;7.88;;;4.30;;
72891;SDS011;61032;50.782;6.818;2023-11-18T01:57:29;9.25;;;5.00;;
72891;SDS011;61032;50.782;6.818;2023-11-18T01:58:29;8.52;;;5.30;;
72891;SDS011;61032;50.782;6.818;2023-11-18T01:59:31;9.13;;;5.25;;
72891;SDS011;61032;50.782;6.818;2023-11-18T02:00:35;10.57;;;5.93;;
72891;SDS011;61032;50.782;6.818;2023-11-18T02:01:38;7.47;;;4.93;;
72891;SDS011;61032;50.782;6.818;2023-11-18T02:02:39;9.75;;;5.40;;
72891;SDS011;61032;50.782;6.818;2023-11-18T02:03:40;7.70;;;4.95;;
72891;SDS011;61032;50.782;6.818;2023-11-18T02:04:42;8.57;;;5.35;;
72891;SDS011;61032;50.782;6.818;2023-11-18T02:05:45;8.25;;;5.05;;
72891;SDS011;61032;50.782;6.818;2023-11-18T02:06:45;9.07;;;5.28;;
72891;SDS011;61032;50.782;6.818;2023-11-18T02:07:48;7.80;;;4.65;;
72891;SDS011;61032;50.782;6.818;2023-11-18T02:08:48;9.52;;;5.72;;
72891;SDS011;61032;50.782;6.818;2023-11-18T02:09:48;13.73;;;5.88;;
72891;SDS011;61032;50.782;6.818;2023-11-18T02:10:54;9.52;;;5.07;;
72891;SDS011;61032;50.782;6.818;2023-11-18T02:13:24;8.60;;;4.70;;
72891;SDS011;61032;50.782;6.818;2023-11-18T02:14:29;9.07;;;5.32;;
72891;SDS011;61032;50.782;6.818;2023-11-18T02:15:36;8.30;;;5.53;;
72891;SDS011;61032;50.782;6.818;2023-11-18T02:16:37;9.65;;;5.18;;
72891;SDS011;61032;50.782;6.818;2023-11-18T02:17:40;7.57;;;4.78;;
72891;SDS011;61032;50.782;6.818;2023-11-18T02:18:42;8.55;;;5.40;;
72891;SDS011;61032;50.782;6.818;2023-11-18T02:19:43;7.68;;;4.88;;
72891;SDS011;61032;50.782;6.818;2023-11-18T02:20:44;8.70;;;5.53;;
72891;SDS011;61032;50.782;6.818;2023-11-18T02:21:47;8.88;;;5.53;;
72891;SDS011;61032;50.782;6.818;2023-11-18T02:23:50;10.35;;;4.60;;
72891;SDS011;61032;50.782;6.818;2023-11-18T02:24:51;8.68;;;4.90;;
72891;SDS011;61032;50.782;6.818;2023-11-18T02:25:51;8.30;;;5.45;;
72891;SDS011;61032;50.782;6.818;2023-11-18T02:26:53;10.80;;;5.93;;
72891;SDS011;61032;50.782;6.818;2023-11-18T02:27:56;9.63;;;5.25;;
72891;SDS011;61032;50.782;6.818;2023-11-18T02:28:56;9.52;;;5.50;;
72891;SDS011;61032;50.782;6.818;2023-11-18T02:29:57;10.45;;;6.00;;
72891;SDS011;61032;50.782;6.818;2023-11-18T02:31:03;12.20;;;6.00;;
72891;SDS011;61032;50.782;6.818;2023-11-18T02:32:20;9.15;;;5.72;;
72891;SDS011;61032;50.782;6.818;2023-11-18T02:33:54;9.13;;;5.53;;
72891;SDS011;61032;50.782;6.818;2023-11-18T02:36:58;11.23;;;5.53;;
72891;SDS011;61032;50.782;6.818;2023-11-18T02:37:46;11.43;;;4.95;;
72891;SDS011;61032;50.782;6.818;2023-11-18T02:38:49;8.65;;;4.80;;
72891;SDS011;61032;50.782;6.818;2023-11-18T02:39:52;10.40;;;5.15;;
72891;SDS011;61032;50.782;6.818;2023-11-18T02:40:58;8.90;;;5.95;;
72891;SDS011;61032;50.782;6.818;2023-11-18T02:42:01;9.75;;;5.32;;
72891;SDS011;61032;50.782;6.818;2023-11-18T02:43:04;14.30;;;6.55;;
72891;SDS011;61032;50.782;6.818;2023-11-18T02:44:05;10.32;;;5.95;;
72891;SDS011;61032;50.782;6.818;2023-11-18T02:45:10;9.32;;;5.50;;
72891;SDS011;61032;50.782;6.818;2023-11-18T02:46:15;11.40;;;6.28;;
72891;SDS011;61032;50.782;6.818;2023-11-18T02:47:16;10.25;;;5.88;;
72891;SDS011;61032;50.782;6.818;2023-11-18T02:48:17;10.05;;;5.32;;
72891;SDS011;61032;50.782;6.818;2023-11-18T02:49:18;9.35;;;5.93;;
72891;SDS011;61032;50.782;6.818;2023-11-18T02:50:18;9.45;;;5.20;;
72891;SDS011;61032;50.782;6.818;2023-11-18T02:51:20;12.32;;;5.90;;
72891;SDS011;61032;50.782;6.818;2023-11-18T02:52:21;12.15;;;5.82;;
72891;SDS011;61032;50.782;6.818;2023-11-18T02:53:21;10.32;;;5.88;;
72891;SDS011;61032;50.782;6.818;2023-11-18T02:54:21;9.88;;;5.85;;
72891;SDS011;61032;50.782;6.818;2023-11-18T02:55:22;10.35;;;5.72;;
72891;SDS011;61032;50.782;6.818;2023-11-18T02:56:24;11.35;;;5.75;;
72891;SDS011;61032;50.782;6.818;2023-11-18T02:57:24;9.90;;;6.10;;
72891;SDS011;61032;50.782;6.818;2023-11-18T02:58:25;9.23;;;5.22;;
72891;SDS011;61032;50.782;6.818;2023-11-18T02:59:25;10.13;;;5.43;;
72891;SDS011;61032;50.782;6.818;2023-11-18T03:00:26;12.95;;;6.45;;
72891;SDS011;61032;50.782;6.818;2023-11-18T03:01:28;9.93;;;5.78;;
72891;SDS011;61032;50.782;6.818;2023-11-18T03:02:30;9.68;;;5.30;;
72891;SDS011;61032;50.782;6.818;2023-11-18T03:03:31;13.80;;;6.07;;
72891;SDS011;61032;50.782;6.818;2023-11-18T03:04:31;10.63;;;5.63;;
72891;SDS011;61032;50.782;6.818;2023-11-18T03:05:31;10.80;;;5.72;;
72891;SDS011;61032;50.782;6.818;2023-11-18T03:06:32;10.70;;;5.90;;
72891;SDS011;61032;50.782;6.818;2023-11-18T03:07:33;9.38;;;5.50;;
72891;SDS011;61032;50.782;6.818;2023-11-18T03:08:34;11.57;;;6.35;;
72891;SDS011;61032;50.782;6.818;2023-11-18T03:09:34;10.98;;;5.93;;
72891;SDS011;61032;50.782;6.818;2023-11-18T03:10:35;11.77;;;5.38;;
72891;SDS011;61032;50.782;6.818;2023-11-18T03:11:35;11.23;;;5.57;;
72891;SDS011;61032;50.782;6.818;2023-11-18T03:12:36;9.85;;;5.40;;
72891;SDS011;61032;50.782;6.818;2023-11-18T03:13:38;13.27;;;6.03;;
72891;SDS011;61032;50.782;6.818;2023-11-18T03:14:38;15.73;;;6.68;;
72891;SDS011;61032;50.782;6.818;2023-11-18T03:15:38;11.15;;;6.13;;
72891;SDS011;61032;50.782;6.818;2023-11-18T03:16:39;10.73;;;6.10;;
72891;SDS011;61032;50.782;6.818;2023-11-18T03:17:39;9.82;;;6.50;;
72891;SDS011;61032;50.782;6.818;2023-11-18T03:18:40;16.27;;;6.35;;
72891;SDS011;61032;50.782;6.818;2023-11-18T03:19:41;12.18;;;6.00;;
72891;SDS011;61032;50.782;6.818;2023-11-18T03:20:42;11.38;;;6.15;;
72891;SDS011;61032;50.782;6.818;2023-11-18T03:21:42;16.33;;;5.95;;
72891;SDS011;61032;50.782;6.818;2023-11-18T03:22:46;18.48;;;7.30;;
72891;SDS011;61032;50.782;6.818;2023-11-18T03:23:47;10.50;;;5.57;;
72891;SDS011;61032;50.782;6.818;2023-11-18T03:24:47;11.50;;;6.43;;
72891;SDS011;61032;50.782;6.818;2023-11-18T03:25:49;9.80;;;6.25;;
72891;SDS011;61032;50.782;6.818;2023-11-18T03:26:49;11.43;;;6.30;;
72891;SDS011;61032;50.782;6.818;2023-11-18T03:27:49;12.02;;;6.35;;
72891;SDS011;61032;50.782;6.818;2023-11-18T03:28:50;19.98;;;6.50;;
72891;SDS011;61032;50.782;6.818;2023-11-18T03:29:50;12.20;;;6.72;;
72891;SDS011;61032;50.782;6.818;2023-11-18T03:30:50;11.73;;;6.40;;
72891;SDS011;61032;50.782;6.818;2023-11-18T03:31:51;15.63;;;7.20;;
72891;SDS011;61032;50.782;6.818;2023-11-18T03:32:51;11.27;;;6.50;;
72891;SDS011;61032;50.782;6.818;2023-11-18T03:33:51;11.27;;;5.68;;
72891;SDS011;61032;50.782;6.818;2023-11-18T03:34:52;9.93;;;6.32;;
72891;SDS011;61032;50.782;6.818;2023-11-18T03:35:52;8.80;;;5.18;;
72891;SDS011;61032;50.782;6.818;2023-11-18T03:36:52;8.93;;;5.53;;
72891;SDS011;61032;50.782;6.818;2023-11-18T03:37:53;10.75;;;5.93;;
72891;SDS011;61032;50.782;6.818;2023-11-18T03:38:53;12.25;;;6.07;;
72891;SDS011;61032;50.782;6.818;2023-11-18T03:39:54;11.07;;;5.95;;
72891;SDS011;61032;50.782;6.818;2023-11-18T03:40:54;9.00;;;5.68;;
72891;SDS011;61032;50.782;6.818;2023-11-18T03:41:55;11.05;;;6.25;;
72891;SDS011;61032;50.782;6.818;2023-11-18T03:42:57;7.90;;;5.18;;
72891;SDS011;61032;50.782;6.818;2023-11-18T03:43:58;10.40;;;6.35;;
72891;SDS011;61032;50.782;6.818;2023-11-18T03:44:59;13.07;;;5.72;;
72891;SDS011;61032;50.782;6.818;2023-11-18T03:45:59;8.93;;;5.72;;
72891;SDS011;61032;50.782;6.818;2023-11-18T03:46:59;10.93;;;5.85;;
72891;SDS011;61032;50.782;6.818;2023-11-18T03:47:59;10.57;;;7.18;;
72891;SDS011;61032;50.782;6.818;2023-11-18T03:49:01;11.98;;;7.63;;
72891;SDS011;61032;50.782;6.818;2023-11-18T03:50:01;10.30;;;6.57;;
72891;SDS011;61032;50.782;6.818;2023-11-18T03:51:02;11.55;;;6.43;;
72891;SDS011;61032;50.782;6.818;2023-11-18T03:52:03;10.82;;;6.65;;
72891;SDS011;61032;50.782;6.818;2023-11-18T03:53:04;11.30;;;7.07;;
72891;SDS011;61032;50.782;6.818;2023-11-18T03:54:05;11.93;;;6.03;;
72891;SDS011;61032;50.782;6.818;2023-11-18T03:55:05;10.27;;;5.90;;
72891;SDS011;61032;50.782;6.818;2023-11-18T03:56:06;11.70;;;6.45;;
72891;SDS011;61032;50.782;6.818;2023-11-18T03:57:07;12.57;;;6.03;;
72891;SDS011;61032;50.782;6.818;2023-11-18T03:58:08;10.57;;;5.82;;
72891;SDS011;61032;50.782;6.818;2023-11-18T03:59:09;13.23;;;7.10;;
72891;SDS011;61032;50.782;6.818;2023-11-18T04:00:09;11.98;;;6.32;;
72891;SDS011;61032;50.782;6.818;2023-11-18T04:01:11;11.27;;;5.97;;
72891;SDS011;61032;50.782;6.818;2023-11-18T04:02:11;12.30;;;6.70;;
72891;SDS011;61032;50.782;6.818;2023-11-18T04:03:12;11.52;;;6.78;;
72891;SDS011;61032;50.782;6.818;2023-11-18T04:04:12;9.38;;;5.90;;
72891;SDS011;61032;50.782;6.818;2023-11-18T04:05:12;10.60;;;5.70;;
72891;SDS011;61032;50.782;6.818;2023-11-18T04:06:13;10.82;;;5.95;;
72891;SDS011;61032;50.782;6.818;2023-11-18T04:07:15;10.55;;;6.25;;
72891;SDS011;61032;50.782;6.818;2023-11-18T04:08:15;13.25;;;6.53;;
72891;SDS011;61032;50.782;6.818;2023-11-18T04:09:15;11.77;;;5.65;;
72891;SDS011;61032;50.782;6.818;2023-11-18T04:10:16;9.25;;;5.70;;
72891;SDS011;61032;50.782;6.818;2023-11-18T04:11:18;11.05;;;6.53;;
72891;SDS011;61032;50.782;6.818;2023-11-18T04:12:18;7.78;;;5.18;;
72891;SDS011;61032;50.782;6.818;2023-11-18T04:13:19;9.32;;;5.50;;
72891;SDS011;61032;50.782;6.818;2023-11-18T04:14:19;11.43;;;5.90;;
72891;SDS011;61032;50.782;6.818;2023-11-18T04:15:21;10.38;;;6.07;;
72891;SDS011;61032;50.782;6.818;2023-11-18T04:16:21;10.25;;;6.10;;
72891;SDS011;61032;50.782;6.818;2023-11-18T04:17:22;11.05;;;6.85;;
72891;SDS011;61032;50.782;6.818;2023-11-18T04:18:22;9.95;;;6.00;;
72891;SDS011;61032;50.782;6.818;2023-11-18T04:19:23;12.82;;;6.18;;
72891;SDS011;61032;50.782;6.818;2023-11-18T04:20:23;11.27;;;7.15;;
72891;SDS011;61032;50.782;6.818;2023-11-18T04:21:24;9.85;;;5.80;;
72891;SDS011;61032;50.782;6.818;2023-11-18T04:22:24;9.60;;;5.90;;
72891;SDS011;61032;50.782;6.818;2023-11-18T04:23:24;10.70;;;6.30;;
72891;SDS011;61032;50.782;6.818;2023-11-18T04:24:24;10.07;;;6.25;;
72891;SDS011;61032;50.782;6.818;2023-11-18T04:25:25;10.23;;;5.50;;
72891;SDS011;61032;50.782;6.818;2023-11-18T04:26:25;10.60;;;6.22;;
72891;SDS011;61032;50.782;6.818;2023-11-18T04:27:25;12.65;;;7.20;;
72891;SDS011;61032;50.782;6.818;2023-11-18T04:28:26;14.02;;;7.50;;
72891;SDS011;61032;50.782;6.818;2023-11-18T04:29:26;10.60;;;6.47;;
72891;SDS011;61032;50.782;6.818;2023-11-18T04:30:27;11.38;;;6.25;;
72891;SDS011;61032;50.782;6.818;2023-11-18T04:31:27;11.05;;;6.72;;
72891;SDS011;61032;50.782;6.818;2023-11-18T04:32:27;10.68;;;6.40;;
72891;SDS011;61032;50.782;6.818;2023-11-18T04:33:28;11.82;;;6.90;;
72891;SDS011;61032;50.782;6.818;2023-11-18T04:34:31;10.38;;;6.18;;
72891;SDS011;61032;50.782;6.818;2023-11-18T04:35:32;9.75;;;5.90;;
72891;SDS011;61032;50.782;6.818;2023-11-18T04:36:34;10.10;;;5.40;;
72891;SDS011;61032;50.782;6.818;2023-11-18T04:37:35;10.65;;;6.18;;
72891;SDS011;61032;50.782;6.818;2023-11-18T04:38:36;10.13;;;5.75;;
72891;SDS011;61032;50.782;6.818;2023-11-18T04:39:36;10.75;;;5.30;;
72891;SDS011;61032;50.782;6.818;2023-11-18T04:40:37;9.13;;;5.05;;
72891;SDS011;61032;50.782;6.818;2023-11-18T04:41:38;10.52;;;5.18;;
72891;SDS011;61032;50.782;6.818;2023-11-18T04:42:39;8.10;;;5.15;;
72891;SDS011;61032;50.782;6.818;2023-11-18T04:43:39;10.38;;;5.25;;
72891;SDS011;61032;50.782;6.818;2023-11-18T04:44:41;11.35;;;5.55;;
72891;SDS011;61032;50.782;6.818;2023-11-18T04:45:42;11.32;;;5.32;;
72891;SDS011;61032;50.782;6.818;2023-11-18T04:46:42;11.73;;;6.00;;
72891;SDS011;61032;50.782;6.818;2023-11-18T04:47:44;10.73;;;5.60;;
72891;SDS011;61032;50.782;6.818;2023-11-18T04:48:44;11.20;;;5.68;;
72891;SDS011;61032;50.782;6.818;2023-11-18T04:49:45;11.10;;;6.38;;
72891;SDS011;61032;50.782;6.818;2023-11-18T04:50:45;8.23;;;4.75;;
72891;SDS011;61032;50.782;6.818;2023-11-18T04:51:45;9.45;;;5.60;;
72891;SDS011;61032;50.782;6.818;2023-11-18T04:52:46;9.45;;;5.97;;
72891;SDS011;61032;50.782;6.818;2023-11-18T04:53:46;11.50;;;5.57;;
72891;SDS011;61032;50.782;6.818;2023-11-18T04:54:46;9.15;;;6.05;;
72891;SDS011;61032;50.782;6.818;2023-11-18T04:55:50;10.20;;;5.47;;
72891;SDS011;61032;50.782;6.818;2023-11-18T04:56:51;10.38;;;5.57;;
72891;SDS011;61032;50.782;6.818;2023-11-18T04:57:51;9.40;;;5.78;;
72891;SDS011;61032;50.782;6.818;2023-11-18T04:58:52;12.95;;;6.00;;
72891;SDS011;61032;50.782;6.818;2023-11-18T04:59:54;8.15;;;5.35;;
72891;SDS011;61032;50.782;6.818;2023-11-18T05:00:54;10.55;;;5.63;;
72891;SDS011;61032;50.782;6.818;2023-11-18T05:01:55;11.13;;;6.13;;
72891;SDS011;61032;50.782;6.818;2023-11-18T05:02:55;11.45;;;6.57;;
72891;SDS011;61032;50.782;6.818;2023-11-18T05:03:55;10.57;;;5.90;;
72891;SDS011;61032;50.782;6.818;2023-11-18T05:04:56;11.88;;;6.55;;
72891;SDS011;61032;50.782;6.818;2023-11-18T05:05:56;12.85;;;6.05;;
72891;SDS011;61032;50.782;6.818;2023-11-18T05:06:56;9.32;;;5.45;;
72891;SDS011;61032;50.782;6.818;2023-11-18T05:07:57;12.32;;;4.93;;
72891;SDS011;61032;50.782;6.818;2023-11-18T05:08:57;10.13;;;5.10;;
72891;SDS011;61032;50.782;6.818;2023-11-18T05:09:57;12.60;;;6.18;;
72891;SDS011;61032;50.782;6.818;2023-11-18T05:10:58;11.05;;;5.03;;
72891;SDS011;61032;50.782;6.818;2023-11-18T05:11:58;11.02;;;5.47;;
72891;SDS011;61032;50.782;6.818;2023-11-18T05:12:59;12.55;;;5.22;;
72891;SDS011;61032;50.782;6.818;2023-11-18T05:13:59;9.57;;;5.45;;
72891;SDS011;61032;50.782;6.818;2023-11-18T05:15:00;9.80;;;6.07;;
72891;SDS011;61032;50.782;6.818;2023-11-18T05:16:01;11.35;;;5.97;;
72891;SDS011;61032;50.782;6.818;2023-11-18T05:17:01;10.60;;;5.28;;
72891;SDS011;61032;50.782;6.818;2023-11-18T05:18:04;10.27;;;5.45;;
72891;SDS011;61032;50.782;6.818;2023-11-18T05:19:08;10.68;;;5.57;;
72891;SDS011;61032;50.782;6.818;2023-11-18T05:20:08;10.32;;;5.05;;
72891;SDS011;61032;50.782;6.818;2023-11-18T05:21:11;10.88;;;5.72;;
72891;SDS011;61032;50.782;6.818;2023-11-18T05:22:11;11.75;;;5.47;;
72891;SDS011;61032;50.782;6.818;2023-11-18T05:23:11;9.48;;;5.70;;
72891;SDS011;61032;50.782;6.818;2023-11-18T05:24:12;11.82;;;5.85;;
72891;SDS011;61032;50.782;6.818;2023-11-18T05:26:14;8.98;;;5.25;;
72891;SDS011;61032;50.782;6.818;2023-11-18T05:27:15;11.02;;;6.15;;
72891;SDS011;61032;50.782;6.818;2023-11-18T05:28:17;12.77;;;6.20;;
72891;SDS011;61032;50.782;6.818;2023-11-18T05:29:18;10.70;;;5.35;;
72891;SDS011;61032;50.782;6.818;2023-11-18T05:30:18;8.63;;;5.22;;
72891;SDS011;61032;50.782;6.818;2023-11-18T05:31:18;9.75;;;5.40;;
72891;SDS011;61032;50.782;6.818;2023-11-18T05:32:19;11.15;;;5.38;;
72891;SDS011;61032;50.782;6.818;2023-11-18T05:33:20;11.98;;;6.00;;
72891;SDS011;61032;50.782;6.818;2023-11-18T05:34:21;13.40;;;6.13;;
72891;SDS011;61032;50.782;6.818;2023-11-18T05:35:21;11.07;;;5.90;;
72891;SDS011;61032;50.782;6.818;2023-11-18T05:36:28;11.10;;;6.20;;
72891;SDS011;61032;50.782;6.818;2023-11-18T05:37:31;9.30;;;5.63;;
72891;SDS011;61032;50.782;6.818;2023-11-18T05:38:35;12.82;;;5.95;;
72891;SDS011;61032;50.782;6.818;2023-11-18T05:39:36;10.63;;;6.53;;
72891;SDS011;61032;50.782;6.818;2023-11-18T05:40:42;12.70;;;7.40;;
72891;SDS011;61032;50.782;6.818;2023-11-18T05:41:50;16.85;;;7.63;;
72891;SDS011;61032;50.782;6.818;2023-11-18T05:42:51;10.52;;;7.38;;
72891;SDS011;61032;50.782;6.818;2023-11-18T05:43:52;11.70;;;6.25;;
72891;SDS011;61032;50.782;6.818;2023-11-18T05:44:57;11.82;;;7.65;;
72891;SDS011;61032;50.782;6.818;2023-11-18T05:45:59;11.05;;;6.70;;
72891;SDS011;61032;50.782;6.818;2023-11-18T05:47:18;9.43;;;6.07;;
72891;SDS011;61032;50.782;6.818;2023-11-18T05:48:18;9.23;;;5.38;;
72891;SDS011;61032;50.782;6.818;2023-11-18T05:49:18;8.60;;;5.40;;
72891;SDS011;61032;50.782;6.818;2023-11-18T05:50:22;10.38;;;5.85;;
72891;SDS011;61032;50.782;6.818;2023-11-18T05:51:26;8.02;;;5.18;;
72891;SDS011;61032;50.782;6.818;2023-11-18T05:52:28;8.55;;;5.28;;
72891;SDS011;61032;50.782;6.818;2023-11-18T05:53:29;10.10;;;4.78;;
72891;SDS011;61032;50.782;6.818;2023-11-18T05:54:30;8.60;;;5.18;;
72891;SDS011;61032;50.782;6.818;2023-11-18T05:55:30;8.07;;;4.70;;
72891;SDS011;61032;50.782;6.818;2023-11-18T05:56:31;8.95;;;4.68;;
72891;SDS011;61032;50.782;6.818;2023-11-18T05:57:31;9.02;;;5.32;;
72891;SDS011;61032;50.782;6.818;2023-11-18T05:58:32;9.30;;;4.55;;
72891;SDS011;61032;50.782;6.818;2023-11-18T05:59:32;8.52;;;3.95;;
72891;SDS011;61032;50.782;6.818;2023-11-18T06:00:33;10.43;;;5.15;;
72891;SDS011;61032;50.782;6.818;2023-11-18T06:01:34;9.25;;;5.22;;
72891;SDS011;61032;50.782;6.818;2023-11-18T06:02:36;9.90;;;4.90;;
72891;SDS011;61032;50.782;6.818;2023-11-18T06:03:39;9.35;;;4.32;;
72891;SDS011;61032;50.782;6.818;2023-11-18T06:04:42;9.27;;;4.80;;
72891;SDS011;61032;50.782;6.818;2023-11-18T06:05:42;9.88;;;4.85;;
72891;SDS011;61032;50.782;6.818;2023-11-18T06:06:43;9.10;;;4.70;;
72891;SDS011;61032;50.782;6.818;2023-11-18T06:07:43;8.77;;;5.60;;
72891;SDS011;61032;50.782;6.818;2023-11-18T06:08:44;10.32;;;5.47;;
72891;SDS011;61032;50.782;6.818;2023-11-18T06:09:44;11.10;;;5.97;;
72891;SDS011;61032;50.782;6.818;2023-11-18T06:10:46;10.60;;;6.53;;
72891;SDS011;61032;50.782;6.818;2023-11-18T06:11:47;13.93;;;6.68;;
72891;SDS011;61032;50.782;6.818;2023-11-18T06:12:49;14.60;;;8.55;;